Ballonweer?

Available data for EHGG from the past 2 hours
GRONINGEN/EELDE
Metar
EHGG 201825Z AUTO 32004KT 9999 BKN034 17/13 Q1012 NOSIG

18:25 UTC

Wind: 320° 4kt

Visibility: 9999 m

Sky: BKN 3400 ft

Temp: 17 deg C / 62.6 deg F

Dewpoint: 13 deg C / 55.4 deg F

Pressure: 1012 hPa

TAF
TAF EHGG 201627Z 2018/2124 31005KT 9999 BKN020 PROB30 2021/2103 3000 MIFG PROB30 TEMPO 2103/2107 4000 BR BKN008 BECMG 2110/2113 29010KT PROB30 TEMPO 2110/2113 6000 -SHRA SCT020TCU BECMG 2115/2118 32007KT

Buienradar (tot 2 uur vooruit)

 

KNMI weerbulletin kleine luchtvaart

Klik hier om het weerbulletin te openen in een nieuw tabblad.